Maple City, Kansas
Current Conditions -  °F | °C
As of 5:54 AM on Sunday 21 Dec 2014 (Local Time) from KWLD Reporting Station
Overcast Overcast  
Wind Chill: 33°   Ceiling: 2300
Heat Index: 40°   Visibility: 10mi
Dew Point: 38°   Wind: 10mph
Humidity: 93%   Direction: 170°S
Pressure: 30.03"   Gusts: NA
Location:  37.06°N, 96.77°W
Report Text: KWLD 211154Z AUTO 17009KT 10SM OVC023 04/03 A3003 RMK AO2 SLP174 T00440033 10056 20044 56015
Loading
Personal Weather Stations






























Interactive Weather Map New forecast layout! Learn more

10-Day Weather Forecast

Advertisements
Track Severe Weather on mobile